Terminal Aerodrome Forecast
Issued by NWS

Home | Current Version | Previous Version | Text Only | Print | Product List | Glossary On
Versions: 1 2 3 4 5 6 7 8 9 10 11 12 13 14 15
000
FTUS45 KRIW 050529
TAFCOD
TAF
KCOD 050529Z 0506/0606 21008KT P6SM SCT100
     FM051200 VRB05KT P6SM BKN100
     FM051900 04006KT P6SM VCSH BKN100
     FM052200 36012KT P6SM VCTS BKN035CB OVC060
     FM060200 01008KT P6SM VCSH BKN040
      AMD LTD TO CLD VIS AND WIND=

USA.gov is the U.S. government's official web portal to all federal, state and local government web resources and services.